createdAt,value
2017-09-15T00:02:10.214Z,1.90
2017-09-15T00:04:38.400Z,2.07
2017-09-15T00:07:07.537Z,1.70
2017-09-15T00:09:36.481Z,1.80
2017-09-15T00:12:05.502Z,1.90
2017-09-15T00:14:34.445Z,1.60
2017-09-15T00:17:02.646Z,1.70
2017-09-15T00:19:30.827Z,1.73
2017-09-15T00:21:58.988Z,1.70
2017-09-15T00:24:27.402Z,1.70
2017-09-15T00:26:56.333Z,2.10
2017-09-15T00:29:24.497Z,1.53
2017-09-15T00:31:52.684Z,2.10
2017-09-15T00:34:20.841Z,1.60
2017-09-15T00:36:49.018Z,1.80
2017-09-15T00:39:17.729Z,1.77
2017-09-15T00:41:45.903Z,1.70
2017-09-15T00:44:14.054Z,1.90
2017-09-15T00:46:42.198Z,1.70
2017-09-15T00:49:11.155Z,1.80
2017-09-15T00:51:39.341Z,1.80
2017-09-15T00:54:07.530Z,1.80
2017-09-15T00:56:37.195Z,1.93
2017-09-15T00:59:05.353Z,1.77
2017-09-15T01:01:33.550Z,2.33
2017-09-15T01:04:01.681Z,2.10
2017-09-15T01:06:30.622Z,1.50
2017-09-15T01:08:58.809Z,1.63
2017-09-15T01:11:26.973Z,2.30
2017-09-15T01:13:55.710Z,2.00
2017-09-15T01:16:24.649Z,2.00
2017-09-15T01:18:52.809Z,2.10
2017-09-15T01:21:20.987Z,1.70
2017-09-15T01:23:49.158Z,2.07
2017-09-15T01:26:17.313Z,2.27
2017-09-15T01:28:45.499Z,1.87
2017-09-15T01:31:13.663Z,2.10
2017-09-15T01:33:42.621Z,2.20
2017-09-15T01:36:12.636Z,2.00
2017-09-15T01:38:40.809Z,2.30
2017-09-15T01:41:09.993Z,2.07
2017-09-15T01:43:38.149Z,1.70
2017-09-15T01:46:06.530Z,2.33
2017-09-15T01:48:34.755Z,1.90
2017-09-15T01:51:03.677Z,2.10
2017-09-15T01:53:31.953Z,1.93
2017-09-15T01:56:00.113Z,2.30
2017-09-15T01:58:28.367Z,2.43
2017-09-15T02:00:58.312Z,2.27
2017-09-15T02:03:26.483Z,2.53
2017-09-15T02:05:54.683Z,2.20
2017-09-15T02:08:22.854Z,2.43
2017-09-15T02:10:51.050Z,2.70
2017-09-15T02:13:20.110Z,2.20
2017-09-15T02:15:49.122Z,2.97
2017-09-15T02:18:17.295Z,2.63
2017-09-15T02:20:45.479Z,2.00
2017-09-15T02:23:13.657Z,2.00
2017-09-15T02:25:42.591Z,2.00
2017-09-15T02:28:10.779Z,2.10
2017-09-15T02:30:38.941Z,2.40
2017-09-15T02:33:07.887Z,3.27
2017-09-15T02:35:37.549Z,2.20
2017-09-15T02:38:05.764Z,3.23
2017-09-15T02:40:34.939Z,2.57
2017-09-15T02:43:03.100Z,2.47
2017-09-15T02:45:32.213Z,2.50
2017-09-15T02:48:00.398Z,2.33
2017-09-15T02:50:28.570Z,2.53
2017-09-15T02:52:56.768Z,2.27
2017-09-15T02:55:24.936Z,2.13
2017-09-15T02:57:53.089Z,2.50
2017-09-15T03:00:21.285Z,2.17
2017-09-15T03:02:49.434Z,2.10
2017-09-15T03:05:17.587Z,2.10
2017-09-15T03:07:46.380Z,2.23
2017-09-15T03:10:14.546Z,2.20
2017-09-15T03:12:42.717Z,1.90
2017-09-15T03:15:11.813Z,2.50
2017-09-15T03:17:40.008Z,2.03
2017-09-15T03:20:08.166Z,2.10
2017-09-15T03:22:36.333Z,2.00
2017-09-15T03:25:04.560Z,2.60
2017-09-15T03:27:32.702Z,1.80
2017-09-15T03:30:01.642Z,2.07
2017-09-15T03:32:30.564Z,2.53
2017-09-15T03:34:59.224Z,3.33
2017-09-15T03:37:27.385Z,2.20
2017-09-15T03:39:56.354Z,2.00
2017-09-15T03:42:24.507Z,2.57
2017-09-15T03:44:53.710Z,2.37
2017-09-15T03:47:21.882Z,2.47
2017-09-15T03:49:50.041Z,2.60
2017-09-15T03:52:18.258Z,2.20
2017-09-15T03:54:46.462Z,2.10
2017-09-15T03:57:15.413Z,2.43
2017-09-15T03:59:43.601Z,2.50
2017-09-15T04:02:11.870Z,2.10
2017-09-15T04:04:40.046Z,2.13
2017-09-15T04:07:08.283Z,2.70
2017-09-15T04:09:36.470Z,2.43
2017-09-15T04:12:04.649Z,2.37
2017-09-15T04:14:32.832Z,2.73
2017-09-15T04:17:01.009Z,2.53
2017-09-15T04:19:29.206Z,2.30
2017-09-15T04:21:58.282Z,2.40
2017-09-15T04:24:27.156Z,2.70
2017-09-15T04:26:55.320Z,2.47
2017-09-15T04:29:23.482Z,2.50
2017-09-15T04:31:51.660Z,2.40
2017-09-15T04:34:19.819Z,2.53
2017-09-15T04:36:47.993Z,2.87
2017-09-15T04:39:16.204Z,2.63
2017-09-15T04:41:44.418Z,3.00
2017-09-15T04:44:12.621Z,2.30
2017-09-15T04:46:40.780Z,2.70
2017-09-15T04:49:08.987Z,2.10
2017-09-15T04:51:37.228Z,2.33
2017-09-15T04:54:06.163Z,2.37
2017-09-15T04:56:34.327Z,2.70
2017-09-15T04:59:02.503Z,2.50
2017-09-15T05:01:30.666Z,2.63
2017-09-15T05:03:58.849Z,2.70
2017-09-15T05:06:27.003Z,2.20
2017-09-15T05:08:56.940Z,2.53
2017-09-15T05:11:25.096Z,2.10
2017-09-15T05:13:53.318Z,2.80
2017-09-15T05:16:21.523Z,3.13
2017-09-15T05:18:50.460Z,2.50
2017-09-15T05:21:18.644Z,3.23
2017-09-15T05:23:47.625Z,2.60
2017-09-15T05:26:15.810Z,2.60
2017-09-15T05:28:43.986Z,2.40
2017-09-15T05:31:12.166Z,2.20
2017-09-15T05:33:40.336Z,2.67
2017-09-15T05:36:08.493Z,2.10
2017-09-15T05:38:36.655Z,2.10
2017-09-15T05:41:04.941Z,4.23
2017-09-15T05:43:33.271Z,2.73
2017-09-15T05:46:03.122Z,2.73
2017-09-15T05:48:31.310Z,2.53
2017-09-15T05:50:59.515Z,2.37
2017-09-15T05:53:27.739Z,2.57
2017-09-15T05:55:55.912Z,2.50
2017-09-15T05:58:24.141Z,2.80
2017-09-15T06:00:52.362Z,2.57
2017-09-15T06:03:20.525Z,2.23
2017-09-15T06:05:48.740Z,2.53
2017-09-15T06:08:16.918Z,3.10
2017-09-15T06:10:45.121Z,2.83
2017-09-15T06:13:14.920Z,3.00
2017-09-15T06:15:43.850Z,2.67
2017-09-15T06:18:12.031Z,2.67
2017-09-15T06:20:40.186Z,2.60
2017-09-15T06:23:08.343Z,2.77
2017-09-15T06:25:37.321Z,3.10
2017-09-15T06:28:05.465Z,2.67
2017-09-15T06:30:33.657Z,2.00
2017-09-15T06:33:01.807Z,2.20
2017-09-15T06:35:29.996Z,2.80
2017-09-15T06:37:58.192Z,2.60
2017-09-15T06:40:26.375Z,2.43
2017-09-15T06:42:55.349Z,2.70
2017-09-15T06:45:23.555Z,2.33
2017-09-15T06:47:52.993Z,3.10
2017-09-15T06:50:21.150Z,2.30
2017-09-15T06:52:49.353Z,2.77
2017-09-15T06:55:18.291Z,4.10
2017-09-15T06:57:47.295Z,2.60
2017-09-15T07:00:16.243Z,2.57
2017-09-15T07:02:44.477Z,2.63
2017-09-15T07:05:12.658Z,2.73
2017-09-15T07:07:41.629Z,2.30
2017-09-15T07:10:10.607Z,2.93
2017-09-15T07:12:40.574Z,2.80
2017-09-15T07:15:08.749Z,2.30
2017-09-15T07:17:36.924Z,2.50
2017-09-15T07:20:05.109Z,2.23
2017-09-15T07:22:33.315Z,2.67
2017-09-15T07:25:03.515Z,2.40
2017-09-15T07:27:31.730Z,2.50
2017-09-15T07:29:59.911Z,2.60
2017-09-15T07:32:28.079Z,2.70
2017-09-15T07:34:56.250Z,2.63
2017-09-15T07:37:24.425Z,2.70
2017-09-15T07:39:53.378Z,2.50
2017-09-15T07:42:21.565Z,3.33
2017-09-15T07:44:49.742Z,2.50
2017-09-15T07:47:18.661Z,3.10
2017-09-15T07:49:46.827Z,2.53
2017-09-15T07:52:14.998Z,2.33
2017-09-15T07:54:43.149Z,2.33
2017-09-15T07:57:12.112Z,2.97
2017-09-15T07:59:40.335Z,2.40
2017-09-15T08:02:09.437Z,2.77
2017-09-15T08:04:38.362Z,2.83
2017-09-15T08:07:06.573Z,2.90
2017-09-15T08:09:35.354Z,1.87
2017-09-15T08:12:03.511Z,2.20
2017-09-15T08:14:31.748Z,2.30
2017-09-15T08:16:59.930Z,3.23
2017-09-15T08:19:28.419Z,2.10
2017-09-15T08:21:57.345Z,2.33
2017-09-15T08:24:25.521Z,2.33
2017-09-15T08:26:53.693Z,2.20
2017-09-15T08:29:21.847Z,2.37
2017-09-15T08:31:50.021Z,3.00
2017-09-15T08:34:18.210Z,3.03
2017-09-15T08:36:46.423Z,3.03
2017-09-15T08:39:14.596Z,2.33
2017-09-15T08:41:43.545Z,2.30
2017-09-15T08:44:11.731Z,2.20
2017-09-15T08:46:39.959Z,2.27
2017-09-15T08:49:08.158Z,2.43
2017-09-15T08:51:36.319Z,2.50
2017-09-15T08:54:04.490Z,2.63
2017-09-15T08:56:32.652Z,2.33
2017-09-15T08:59:00.820Z,2.20
2017-09-15T09:01:29.002Z,2.60
2017-09-15T09:03:57.580Z,2.60
2017-09-15T09:06:25.810Z,2.07
2017-09-15T09:08:54.785Z,2.70
2017-09-15T09:11:22.951Z,3.00
2017-09-15T09:13:51.155Z,2.80
2017-09-15T09:16:20.581Z,2.20
2017-09-15T09:18:49.551Z,2.10
2017-09-15T09:21:18.529Z,2.50
2017-09-15T09:23:46.685Z,2.40
2017-09-15T09:26:16.039Z,2.80
2017-09-15T09:28:44.966Z,2.97
2017-09-15T09:31:13.159Z,2.80
2017-09-15T09:33:41.321Z,2.10
2017-09-15T09:36:09.474Z,2.60
2017-09-15T09:38:37.673Z,2.47
2017-09-15T09:41:05.822Z,2.30
2017-09-15T09:43:34.060Z,2.00
2017-09-15T09:46:02.216Z,2.47
2017-09-15T09:48:30.413Z,2.43
2017-09-15T09:50:59.362Z,2.37
2017-09-15T09:53:27.528Z,2.13
2017-09-15T09:55:55.706Z,2.00
2017-09-15T09:58:23.875Z,3.30
2017-09-15T10:00:52.048Z,2.53
2017-09-15T10:03:20.228Z,1.80
2017-09-15T10:05:48.410Z,2.03
2017-09-15T10:08:16.570Z,2.13
2017-09-15T10:10:44.752Z,2.27
2017-09-15T10:13:12.910Z,2.17
2017-09-15T10:15:41.085Z,2.37
2017-09-15T10:18:09.250Z,2.00
2017-09-15T10:20:37.413Z,2.27
2017-09-15T10:23:05.588Z,2.10
2017-09-15T10:25:34.522Z,2.90
2017-09-15T10:28:02.706Z,2.13
2017-09-15T10:30:32.358Z,2.07
2017-09-15T10:33:01.393Z,2.23
2017-09-15T10:35:30.327Z,2.27
2017-09-15T10:37:59.258Z,2.47
2017-09-15T10:40:27.434Z,2.33
2017-09-15T10:42:55.611Z,1.57
2017-09-15T10:45:23.794Z,2.00
2017-09-15T10:47:51.953Z,1.77
2017-09-15T10:50:20.377Z,3.50
2017-09-15T10:52:48.537Z,2.00
2017-09-15T10:55:16.726Z,2.00
2017-09-15T10:57:50.711Z,3.00
2017-09-15T11:00:18.937Z,1.97
2017-09-15T11:02:47.101Z,2.40
2017-09-15T11:05:16.045Z,2.17
2017-09-15T11:07:44.215Z,2.07
2017-09-15T11:10:12.720Z,2.50
2017-09-15T11:12:40.892Z,2.23
2017-09-15T11:15:09.133Z,1.77
2017-09-15T11:17:37.311Z,2.10
2017-09-15T11:20:05.499Z,2.30
2017-09-15T11:22:33.677Z,2.60
2017-09-15T11:25:01.876Z,2.20
2017-09-15T11:27:30.063Z,2.03
2017-09-15T11:29:59.466Z,1.90
2017-09-15T11:32:28.430Z,2.40
2017-09-15T11:34:56.571Z,1.90
2017-09-15T11:37:24.745Z,2.20
2017-09-15T11:39:52.910Z,2.50
2017-09-15T11:42:21.139Z,2.40
2017-09-15T11:44:49.289Z,2.50
2017-09-15T11:47:17.543Z,2.43
2017-09-15T11:49:46.543Z,2.03
2017-09-15T11:52:14.686Z,2.50
2017-09-15T11:54:42.876Z,2.00
2017-09-15T11:57:11.014Z,2.37
2017-09-15T11:59:40.017Z,2.50
2017-09-15T12:02:08.203Z,2.37
2017-09-15T12:04:37.148Z,2.20
2017-09-15T12:07:05.356Z,2.30
2017-09-15T12:09:34.312Z,2.33
2017-09-15T12:12:03.255Z,2.40
2017-09-15T12:14:32.193Z,2.20
2017-09-15T12:17:00.342Z,1.90
2017-09-15T12:19:28.601Z,2.37
2017-09-15T12:21:57.326Z,2.50
2017-09-15T12:24:25.486Z,2.20
2017-09-15T12:26:53.759Z,2.90
2017-09-15T12:29:22.781Z,2.37
2017-09-15T12:31:50.972Z,2.20
2017-09-15T12:34:19.914Z,1.53
2017-09-15T12:36:48.094Z,1.93
2017-09-15T12:39:16.257Z,1.90
2017-09-15T12:41:44.412Z,1.70
2017-09-15T12:44:12.613Z,1.63
2017-09-15T12:46:40.838Z,1.80
2017-09-15T12:49:08.989Z,1.73
2017-09-15T12:51:38.654Z,1.57
2017-09-15T12:54:06.885Z,1.60
2017-09-15T12:56:35.027Z,1.80
2017-09-15T12:59:03.197Z,2.03
2017-09-15T13:01:31.362Z,1.83
2017-09-15T13:03:59.517Z,2.03
2017-09-15T13:06:27.690Z,1.90
2017-09-15T13:08:55.894Z,2.13
2017-09-15T13:11:24.085Z,2.20
2017-09-15T13:13:53.047Z,2.17
2017-09-15T13:16:22.576Z,2.33
2017-09-15T13:18:50.807Z,2.13
2017-09-15T13:21:19.737Z,2.40
2017-09-15T13:23:47.940Z,2.30
2017-09-15T13:26:16.338Z,2.40
2017-09-15T13:28:44.502Z,2.60
2017-09-15T13:31:12.692Z,2.23
2017-09-15T13:33:41.711Z,1.93
2017-09-15T13:36:10.002Z,2.40
2017-09-15T13:38:38.176Z,2.00
2017-09-15T13:41:06.341Z,1.70
2017-09-15T13:43:34.543Z,2.37
2017-09-15T13:46:02.719Z,2.27
2017-09-15T13:48:30.898Z,1.87
2017-09-15T13:50:59.109Z,2.10
2017-09-15T13:53:28.083Z,1.90
2017-09-15T13:55:56.260Z,1.97
2017-09-15T13:58:25.206Z,1.70
2017-09-15T14:00:53.376Z,1.40
2017-09-15T14:03:21.567Z,1.60
2017-09-15T14:05:49.741Z,1.50
2017-09-15T14:08:17.913Z,1.30
2017-09-15T14:10:46.084Z,1.30
2017-09-15T14:13:14.250Z,1.40
2017-09-15T14:15:42.435Z,1.50
2017-09-15T14:18:10.653Z,1.60
2017-09-15T14:20:39.623Z,1.47
2017-09-15T14:23:07.790Z,1.40
2017-09-15T14:25:36.113Z,1.30
2017-09-15T14:28:04.307Z,1.33
2017-09-15T14:30:32.478Z,1.43
2017-09-15T14:33:00.660Z,1.50
2017-09-15T14:35:28.818Z,1.57
2017-09-15T14:37:57.003Z,1.50
2017-09-15T14:40:25.154Z,2.10
2017-09-15T14:42:53.329Z,1.87
2017-09-15T14:45:21.501Z,1.60
2017-09-15T14:47:50.447Z,1.30
2017-09-15T14:50:18.620Z,1.30
2017-09-15T14:52:46.795Z,2.07
2017-09-15T14:55:14.957Z,1.43
2017-09-15T14:57:43.872Z,1.40
2017-09-15T15:00:12.047Z,1.60
2017-09-15T15:02:40.236Z,1.20
2017-09-15T15:05:08.450Z,1.50
2017-09-15T15:07:36.606Z,1.60
2017-09-15T15:10:04.762Z,1.70
2017-09-15T15:12:32.937Z,1.70
2017-09-15T15:15:01.898Z,1.73
2017-09-15T15:17:30.070Z,1.83
2017-09-15T15:19:58.248Z,1.70
2017-09-15T15:22:26.464Z,1.70
2017-09-15T15:24:54.656Z,1.67
2017-09-15T15:27:23.613Z,1.97
2017-09-15T15:32:23.637Z,1.80
2017-09-15T15:34:51.853Z,1.60
2017-09-15T15:37:20.070Z,2.50
2017-09-15T15:39:48.285Z,1.60
2017-09-15T15:42:16.456Z,2.20
2017-09-15T15:44:44.666Z,1.80
2017-09-15T15:47:13.594Z,1.60
2017-09-15T15:49:41.772Z,1.70
2017-09-15T15:52:10.879Z,1.33
2017-09-15T15:54:39.954Z,1.40
2017-09-15T15:57:08.896Z,1.60
2017-09-15T15:59:38.580Z,1.90
2017-09-15T16:02:07.966Z,2.00
2017-09-15T16:04:36.158Z,1.40
2017-09-15T16:07:04.322Z,1.60
2017-09-15T16:09:32.477Z,2.30
2017-09-15T16:12:01.655Z,1.50
2017-09-15T16:14:29.842Z,1.87
2017-09-15T16:16:58.013Z,2.00
2017-09-15T16:19:26.190Z,1.87
2017-09-15T16:21:54.369Z,1.70
2017-09-15T16:24:22.535Z,1.70
2017-09-15T16:26:51.534Z,1.57
2017-09-15T16:29:19.716Z,1.80
2017-09-15T16:31:48.669Z,2.00
2017-09-15T16:34:16.877Z,1.87
2017-09-15T16:36:45.069Z,1.53
2017-09-15T16:39:19.719Z,1.57
2017-09-15T16:41:53.569Z,1.50
2017-09-15T16:44:28.225Z,2.00
2017-09-15T16:47:01.993Z,1.77
2017-09-15T16:49:30.455Z,1.63
2017-09-15T16:51:58.645Z,1.47
2017-09-15T16:54:27.573Z,1.70
2017-09-15T16:56:56.286Z,1.50
2017-09-15T16:59:25.475Z,1.80
2017-09-15T17:01:53.702Z,1.50
2017-09-15T17:04:22.645Z,1.87
2017-09-15T17:06:50.814Z,1.97
2017-09-15T17:09:18.983Z,1.23
2017-09-15T17:11:47.183Z,1.87
2017-09-15T17:14:16.112Z,1.47
2017-09-15T17:16:44.306Z,1.63
2017-09-15T17:19:12.721Z,1.60
2017-09-15T17:21:40.867Z,2.00
2017-09-15T17:24:09.082Z,2.13
2017-09-15T17:26:37.278Z,1.97
2017-09-15T17:29:06.246Z,2.20
2017-09-15T17:31:34.406Z,2.07
2017-09-15T17:34:02.593Z,2.00
2017-09-15T17:36:30.742Z,2.20
2017-09-15T17:38:59.520Z,1.70
2017-09-15T17:41:27.694Z,2.33
2017-09-15T17:43:55.883Z,1.40
2017-09-15T17:46:24.081Z,1.97
2017-09-15T17:48:53.755Z,1.50
2017-09-15T17:51:22.665Z,1.70
2017-09-15T17:53:51.369Z,2.00
2017-09-15T17:58:55.483Z,1.83
2017-09-15T18:01:24.445Z,1.80
2017-09-15T18:03:53.707Z,1.70
2017-09-15T18:06:22.698Z,1.20
2017-09-15T18:08:50.910Z,1.57
2017-09-15T18:11:19.480Z,1.63
2017-09-15T18:13:47.708Z,1.90
2017-09-15T18:16:16.360Z,2.50
2017-09-15T18:18:44.610Z,1.73
2017-09-15T18:21:12.812Z,1.73
2017-09-15T18:23:40.987Z,2.10
2017-09-15T18:26:09.144Z,1.83
2017-09-15T18:31:01.437Z,1.80
2017-09-15T18:33:29.647Z,1.60
2017-09-15T18:35:57.841Z,1.80
2017-09-15T18:38:26.042Z,1.87
2017-09-15T18:40:55.078Z,1.90
2017-09-15T18:43:23.225Z,2.63
2017-09-15T18:45:51.451Z,2.10
2017-09-15T18:48:19.648Z,2.00
2017-09-15T18:50:47.802Z,1.97
2017-09-15T18:53:16.002Z,2.80
2017-09-15T18:55:44.942Z,3.40
2017-09-15T18:58:14.121Z,2.50
2017-09-15T19:00:43.899Z,2.17
2017-09-15T19:03:12.056Z,2.20
2017-09-15T19:05:40.258Z,2.00
2017-09-15T19:08:08.548Z,1.90
2017-09-15T19:10:36.720Z,2.20
2017-09-15T19:13:06.316Z,2.90
2017-09-15T19:15:34.521Z,2.83
2017-09-15T19:18:03.499Z,1.70
2017-09-15T19:20:31.691Z,2.20
2017-09-15T19:22:59.909Z,2.77
2017-09-15T19:25:28.074Z,2.80
2017-09-15T19:27:56.250Z,3.50
2017-09-15T19:30:24.441Z,3.27
2017-09-15T19:32:52.613Z,3.50
2017-09-15T19:35:20.786Z,3.37
2017-09-15T19:37:49.877Z,3.10
2017-09-15T19:40:18.067Z,2.97
2017-09-15T19:42:46.245Z,2.80
2017-09-15T19:45:14.441Z,2.93
2017-09-15T19:47:42.663Z,3.50
2017-09-15T19:50:10.846Z,5.13
2017-09-15T19:52:39.806Z,3.87
2017-09-15T19:55:09.492Z,3.50
2017-09-15T19:57:37.739Z,5.10
2017-09-15T20:00:05.911Z,6.70
2017-09-15T20:02:34.133Z,6.57
2017-09-15T20:05:02.322Z,6.60
2017-09-15T20:07:31.321Z,5.10
2017-09-15T20:10:00.294Z,4.70
2017-09-15T20:12:28.531Z,4.53
2017-09-15T20:14:56.824Z,5.00
2017-09-15T20:17:25.936Z,5.40
2017-09-15T20:19:54.082Z,5.30
2017-09-15T20:22:22.277Z,4.30
2017-09-15T20:24:50.472Z,4.60
2017-09-15T20:27:19.414Z,4.27
2017-09-15T20:29:47.625Z,4.30
2017-09-15T20:32:15.783Z,4.50
2017-09-15T20:34:43.990Z,4.80
2017-09-15T20:37:12.921Z,5.17
2017-09-15T20:39:41.111Z,4.63
2017-09-15T20:42:09.275Z,5.30
2017-09-15T20:44:37.446Z,4.77
2017-09-15T20:47:05.622Z,4.33
2017-09-15T20:49:33.811Z,4.50
2017-09-15T20:52:01.988Z,5.37
2017-09-15T20:54:31.572Z,4.43
2017-09-15T20:56:59.748Z,4.40
2017-09-15T20:59:28.910Z,4.60
2017-09-15T21:01:57.833Z,4.90
2017-09-15T21:04:27.257Z,5.47
2017-09-15T21:06:56.180Z,4.40
2017-09-15T21:09:25.121Z,4.87
2017-09-15T21:11:53.859Z,3.83
2017-09-15T21:14:24.028Z,3.80
2017-09-15T21:16:52.227Z,2.77
2017-09-15T21:19:20.401Z,3.77
2017-09-15T21:21:48.618Z,3.20
2017-09-15T21:24:17.584Z,3.57
2017-09-15T21:26:46.509Z,3.77
2017-09-15T21:29:14.694Z,4.00
2017-09-15T21:31:44.041Z,4.67
2017-09-15T21:36:42.318Z,4.13
2017-09-15T21:39:10.499Z,4.37
2017-09-15T21:41:38.696Z,4.80
2017-09-15T21:44:06.854Z,4.17
2017-09-15T21:46:35.051Z,4.10
2017-09-15T21:49:03.230Z,4.43
2017-09-15T21:51:31.488Z,5.33
2017-09-15T21:53:59.714Z,4.80
2017-09-15T21:56:27.890Z,5.00
2017-09-15T21:58:56.096Z,4.80
2017-09-15T22:01:24.266Z,5.23
2017-09-15T22:04:11.305Z,5.07
2017-09-15T22:06:40.233Z,4.67
2017-09-15T22:09:08.422Z,4.87
2017-09-15T22:11:36.573Z,3.73
2017-09-15T22:14:04.741Z,3.50
2017-09-15T22:16:32.910Z,3.20
2017-09-15T22:19:01.080Z,3.57
2017-09-15T22:21:30.033Z,4.50
2017-09-15T22:23:58.230Z,3.83
2017-09-15T22:26:26.384Z,4.27
2017-09-15T22:28:54.581Z,3.60
2017-09-15T22:31:22.742Z,3.73
2017-09-15T22:33:50.906Z,3.90
2017-09-15T22:36:19.074Z,4.33
2017-09-15T22:38:47.251Z,4.47
2017-09-15T22:41:15.402Z,4.47
2017-09-15T22:43:43.582Z,3.97
2017-09-15T22:46:11.844Z,4.00
2017-09-15T22:48:40.033Z,3.83
2017-09-15T22:51:08.217Z,4.10
2017-09-15T22:53:36.396Z,3.63
2017-09-15T22:56:04.562Z,4.20
2017-09-15T22:58:33.489Z,4.10
2017-09-15T23:01:02.436Z,5.63
2017-09-15T23:03:30.614Z,5.70
2017-09-15T23:05:59.578Z,5.23
2017-09-15T23:08:27.746Z,5.30
2017-09-15T23:10:55.900Z,4.20
2017-09-15T23:13:24.843Z,3.70
2017-09-15T23:15:53.009Z,3.50
2017-09-15T23:18:21.213Z,3.17
2017-09-15T23:20:49.372Z,3.40
2017-09-15T23:23:17.695Z,3.30
2017-09-15T23:25:46.615Z,3.30
2017-09-15T23:28:14.778Z,3.30
2017-09-15T23:30:42.964Z,3.40
2017-09-15T23:33:11.107Z,4.67
2017-09-15T23:35:40.221Z,3.10
2017-09-15T23:38:08.383Z,2.90
2017-09-15T23:40:36.556Z,3.00
2017-09-15T23:43:04.760Z,3.20
2017-09-15T23:45:32.919Z,3.43
2017-09-15T23:48:01.085Z,3.50
2017-09-15T23:50:29.262Z,3.53
2017-09-15T23:52:57.427Z,3.60
2017-09-15T23:55:25.590Z,3.10
2017-09-15T23:57:53.759Z,4.20
